Time;durP1;ratioP1;P1;durP2;ratioP2;P2;SDS_P1;SDS_P2;PMS_P1;PMS_P2;Temp;Humidity;BMP_temperature;BMP_pressure;BME280_temperature;BME280_humidity;BME280_pressure;Samples;Min_cycle;Max_cycle;Signal;HPM_P1;HPM_P2
2022/02/24 00:00:25;;;;;;;14.13;8.73;;;;;;;-3.10;100.00;97589.38;4910511;28;20215;-49
2022/02/24 00:02:53;;;;;;;11.63;9.03;;;;;;;-3.07;100.00;97589.22;4937089;28;20213;-57
2022/02/24 00:05:21;;;;;;;13.67;9.20;;;;;;;-3.07;100.00;97584.84;4929637;28;20230;-50
2022/02/24 00:07:49;;;;;;;13.13;9.77;;;;;;;-3.13;100.00;97590.38;4927058;28;20213;-53
2022/02/24 00:10:20;;;;;;;9.80;8.83;;;;;;;-3.22;100.00;97596.09;4925113;28;21567;-50
2022/02/24 00:12:48;;;;;;;10.67;9.43;;;;;;;-3.14;100.00;97587.91;4940895;28;20213;-50
2022/02/24 00:15:17;;;;;;;9.80;8.83;;;;;;;-3.15;100.00;97591.41;4946093;28;20234;-52
2022/02/24 00:17:46;;;;;;;13.60;9.93;;;;;;;-3.26;100.00;97595.44;4903293;28;20221;-54
2022/02/24 00:20:14;;;;;;;14.10;9.73;;;;;;;-3.26;100.00;97599.78;4928228;28;20467;-50
2022/02/24 00:22:42;;;;;;;12.77;10.57;;;;;;;-3.31;100.00;97583.69;4942917;28;20545;-51
2022/02/24 00:25:11;;;;;;;11.97;9.07;;;;;;;-3.13;100.00;97581.78;4914538;28;20992;-47
2022/02/24 00:27:39;;;;;;;9.73;8.83;;;;;;;-3.13;100.00;97581.78;4946958;28;20457;-52
2022/02/24 00:30:10;;;;;;;14.80;8.30;;;;;;;-3.18;100.00;97576.03;4944778;28;20454;-48
2022/02/24 00:32:38;;;;;;;12.87;9.60;;;;;;;-3.16;100.00;97577.59;4910757;28;20689;-50
2022/02/24 00:35:08;;;;;;;11.33;9.70;;;;;;;-3.21;100.00;97571.84;4949712;28;20552;-50
2022/02/24 00:37:36;;;;;;;10.60;9.50;;;;;;;-3.27;100.00;97577.38;4936554;28;20230;-51
2022/02/24 00:40:05;;;;;;;10.03;8.80;;;;;;;-3.26;100.00;97569.50;4934517;28;20210;-50
2022/02/24 00:42:34;;;;;;;10.33;9.30;;;;;;;-3.02;100.00;97576.00;4934091;28;20218;-47
2022/02/24 00:45:01;;;;;;;13.80;10.10;;;;;;;-3.26;100.00;97563.50;4940152;28;20241;-48
2022/02/24 00:47:29;;;;;;;14.13;8.90;;;;;;;-2.97;100.00;97563.59;4915179;28;20219;-51
2022/02/24 00:49:57;;;;;;;12.70;8.77;;;;;;;-2.96;100.00;97558.28;4941876;28;20458;-55
2022/02/24 00:52:27;;;;;;;13.73;8.67;;;;;;;-3.14;100.00;97572.34;4932248;28;20221;-51
2022/02/24 00:54:55;;;;;;;9.97;8.20;;;;;;;-3.03;100.00;97562.19;4936670;28;20607;-52
2022/02/24 00:57:24;;;;;;;12.40;8.23;;;;;;;-3.03;100.00;97556.16;4934503;28;20293;-50
2022/02/24 00:59:52;;;;;;;9.80;8.53;;;;;;;-2.81;100.00;97555.75;4943762;28;20207;-56
2022/02/24 01:02:20;;;;;;;10.03;8.30;;;;;;;-3.07;100.00;97558.09;4914408;28;20849;-52
2022/02/24 01:04:48;;;;;;;12.73;8.53;;;;;;;-3.13;100.00;97553.28;4944603;28;20258;-56
2022/02/24 01:07:19;;;;;;;11.60;8.47;;;;;;;-3.27;100.00;97544.53;4944247;28;20231;-49
2022/02/24 01:09:48;;;;;;;11.20;9.77;;;;;;;-2.92;100.00;97546.00;4925891;28;20476;-55
2022/02/24 01:12:18;;;;;;;12.97;9.47;;;;;;;-2.81;100.00;97541.00;4932543;28;20476;-51
2022/02/24 01:14:46;;;;;;;10.27;8.20;;;;;;;-2.65;100.00;97540.91;4950240;28;20730;-54
2022/02/24 01:17:15;;;;;;;9.90;8.90;;;;;;;-2.90;100.00;97536.38;4942696;28;20305;-50
2022/02/24 01:19:43;;;;;;;9.83;8.57;;;;;;;-3.00;100.00;97540.44;4912107;28;20222;-55
2022/02/24 01:22:11;;;;;;;11.77;8.37;;;;;;;-2.96;100.00;97536.75;4944941;28;20214;-50
2022/02/24 01:24:39;;;;;;;15.03;11.70;;;;;;;-2.97;100.00;97538.47;4936799;28;20242;-52
2022/02/24 01:27:09;;;;;;;15.00;9.53;;;;;;;-2.59;100.00;97544.06;4932998;28;20203;-50
2022/02/24 01:29:37;;;;;;;9.37;8.43;;;;;;;-2.54;100.00;97545.47;4932993;28;20294;-47
2022/02/24 01:32:05;;;;;;;11.70;8.47;;;;;;;-2.74;100.00;97544.06;4947029;28;20204;-53
2022/02/24 01:34:33;;;;;;;8.23;7.43;;;;;;;-2.79;100.00;97538.34;4913399;28;20234;-49
2022/02/24 01:37:01;;;;;;;10.10;7.27;;;;;;;-2.82;100.00;97531.56;4944156;28;20213;-46
2022/02/24 01:39:29;;;;;;;8.00;7.10;;;;;;;-2.85;100.00;97520.53;4938427;28;20226;-49
2022/02/24 01:41:57;;;;;;;8.90;8.03;;;;;;;-2.87;100.00;97518.03;4929141;28;20683;-51
2022/02/24 01:44:40;;;;;;;9.73;7.70;;;;;;;-2.93;100.00;97514.03;4932420;28;20230;-48
2022/02/24 01:47:08;;;;;;;8.73;7.63;;;;;;;-3.08;100.00;97508.00;4943127;28;20209;-46
2022/02/24 01:49:36;;;;;;;9.57;7.20;;;;;;;-3.23;100.00;97504.53;4946220;28;20290;-51
2022/02/24 01:52:05;;;;;;;9.07;8.07;;;;;;;-3.14;100.00;97495.41;4910981;28;20210;-50
2022/02/24 01:54:34;;;;;;;7.77;7.00;;;;;;;-3.20;100.00;97482.81;4945315;28;20226;-51
2022/02/24 01:57:03;;;;;;;10.47;6.93;;;;;;;-3.22;100.00;97479.47;4927163;28;20928;-50
2022/02/24 01:59:33;;;;;;;7.53;6.50;;;;;;;-3.27;100.00;97479.72;4931948;28;20489;-52
2022/02/24 02:02:01;;;;;;;8.33;7.63;;;;;;;-3.32;100.00;97476.56;4945718;28;20231;-51
2022/02/24 02:04:32;;;;;;;9.07;7.50;;;;;;;-3.32;100.00;97478.34;4948881;28;20226;-51
2022/02/24 02:07:00;;;;;;;8.30;7.50;;;;;;;-3.22;100.00;97466.50;4911684;28;20329;-54
2022/02/24 02:09:28;;;;;;;9.53;6.50;;;;;;;-3.13;100.00;97463.38;4942575;28;20218;-49
2022/02/24 02:11:56;;;;;;;7.23;6.30;;;;;;;-3.07;100.00;97463.00;4929020;28;20215;-49
2022/02/24 02:14:24;;;;;;;8.83;6.27;;;;;;;-3.06;100.00;97459.47;4945999;28;20720;-50
2022/02/24 02:16:54;;;;;;;9.43;6.50;;;;;;;-2.88;100.00;97443.75;4906496;28;20457;-51
2022/02/24 02:19:22;;;;;;;6.73;5.93;;;;;;;-2.55;100.00;97455.59;4949214;28;20321;-50
2022/02/24 02:21:52;;;;;;;10.60;7.00;;;;;;;-2.56;100.00;97446.13;4936443;28;20276;-52
2022/02/24 02:24:20;;;;;;;7.30;6.50;;;;;;;-2.77;100.00;97440.50;4934391;28;20234;-56
2022/02/24 02:26:49;;;;;;;10.60;7.20;;;;;;;-2.83;100.00;97433.13;4944795;28;20971;-49
2022/02/24 02:29:18;;;;;;;8.97;6.90;;;;;;;-2.84;100.00;97416.69;4931573;28;20210;-50
2022/02/24 02:31:46;;;;;;;7.43;6.73;;;;;;;-3.04;100.00;97417.91;4929151;28;20222;-51
2022/02/24 02:34:17;;;;;;;9.70;7.53;;;;;;;-2.98;100.00;97416.72;4943040;28;20928;-52
2022/02/24 02:36:47;;;;;;;7.53;6.83;;;;;;;-3.12;100.00;97412.38;4947753;28;20206;-49
2022/02/24 02:39:17;;;;;;;10.57;7.77;;;;;;;-3.43;100.00;97406.41;4903807;28;20570;-49
2022/02/24 02:41:47;;;;;;;7.60;6.47;;;;;;;-3.22;100.00;97405.16;4944328;28;20217;-49
2022/02/24 02:44:16;;;;;;;8.30;7.10;;;;;;;-3.13;100.00;97400.34;4915733;28;21170;-49
2022/02/24 02:46:45;;;;;;;8.93;6.47;;;;;;;-3.13;100.00;97403.75;4924549;28;20213;-52
2022/02/24 02:49:13;;;;;;;8.20;6.33;;;;;;;-3.18;100.00;97402.38;4943256;28;20455;-48
2022/02/24 02:51:44;;;;;;;8.77;6.60;;;;;;;-3.31;100.00;97397.91;4945070;28;20203;-52
2022/02/24 02:54:12;;;;;;;7.63;6.83;;;;;;;-3.28;100.00;97402.09;4896778;28;21659;-47
2022/02/24 02:56:42;;;;;;;8.73;6.43;;;;;;;-3.21;100.00;97398.19;4945454;28;22721;-50
2022/02/24 02:59:10;;;;;;;6.97;6.40;;;;;;;-3.31;100.00;97403.09;4924678;28;20227;-52
2022/02/24 03:01:38;;;;;;;6.63;6.00;;;;;;;-3.18;100.00;97407.56;4947422;28;20933;-50
2022/02/24 03:04:06;;;;;;;6.73;6.03;;;;;;;-3.20;100.00;97397.28;4925247;28;20764;-51
2022/02/24 03:06:34;;;;;;;8.53;6.33;;;;;;;-3.17;100.00;97391.09;4949956;28;20545;-52
2022/02/24 03:09:03;;;;;;;6.43;5.63;;;;;;;-3.31;100.00;97386.72;4943270;28;20266;-51
2022/02/24 03:11:31;;;;;;;7.33;5.93;;;;;;;-3.47;100.00;97384.22;4896246;28;20595;-52
2022/02/24 03:14:01;;;;;;;7.63;6.93;;;;;;;-3.56;100.00;97389.03;4923216;28;20743;-56
2022/02/24 03:16:29;;;;;;;6.90;6.40;;;;;;;-3.64;100.00;97379.09;4946109;28;20240;-53
2022/02/24 03:18:57;;;;;;;8.47;6.90;;;;;;;-3.59;100.00;97370.22;4923439;28;20305;-51
2022/02/24 03:21:25;;;;;;;7.13;6.40;;;;;;;-3.62;100.00;97360.88;4943041;28;20215;-55
2022/02/24 03:23:53;;;;;;;7.77;6.57;;;;;;;-3.60;100.00;97371.16;4943048;28;20509;-51
2022/02/24 03:26:22;;;;;;;8.87;6.30;;;;;;;-3.75;100.00;97368.56;4897517;28;20222;-50
2022/02/24 03:28:50;;;;;;;7.27;6.57;;;;;;;-3.81;100.00;97381.81;4934584;28;20215;-52
2022/02/24 03:31:19;;;;;;;10.27;6.67;;;;;;;-3.85;100.00;97381.19;4932401;28;20336;-53
2022/02/24 03:33:48;;;;;;;6.93;6.40;;;;;;;-3.90;100.00;97372.88;4923140;28;20485;-49
2022/02/24 03:36:16;;;;;;;7.50;6.77;;;;;;;-3.99;100.00;97371.63;4945476;28;20544;-52
2022/02/24 03:38:44;;;;;;;7.17;6.37;;;;;;;-4.01;100.00;97360.53;4947342;28;20967;-48
2022/02/24 03:41:12;;;;;;;7.00;6.43;;;;;;;-4.10;100.00;97361.06;4945213;28;20552;-53
2022/02/24 03:43:41;;;;;;;8.03;7.03;;;;;;;-4.13;100.00;97356.06;4896340;28;20258;-49
2022/02/24 03:46:09;;;;;;;7.87;7.17;;;;;;;-3.86;100.00;97348.47;4924599;28;20608;-50
2022/02/24 03:48:38;;;;;;;6.80;6.13;;;;;;;-3.97;100.00;97353.44;4947205;28;20297;-49
2022/02/24 03:51:07;;;;;;;7.50;6.73;;;;;;;-3.97;100.00;97358.59;4922403;28;20242;-57
2022/02/24 03:53:35;;;;;;;10.60;7.13;;;;;;;-3.99;100.00;97350.91;4946129;28;20249;-52
2022/02/24 03:56:03;;;;;;;7.80;7.20;;;;;;;-3.96;100.00;97349.91;4946674;28;21179;-54
2022/02/24 03:58:32;;;;;;;9.23;7.63;;;;;;;-3.99;100.00;97355.25;4913471;28;20497;-55
2022/02/24 04:01:02;;;;;;;7.50;6.90;;;;;;;-4.00;100.00;97353.59;4926495;28;20288;-54
2022/02/24 04:03:33;;;;;;;9.23;6.73;;;;;;;-4.00;100.00;97346.66;4939190;28;20457;-53
2022/02/24 04:06:06;;;;;;;7.03;6.23;;;;;;;-4.05;100.00;97348.69;4929396;28;20306;-52
2022/02/24 04:08:34;;;;;;;9.53;6.77;;;;;;;-4.07;100.00;97335.00;4946689;28;20804;-52
2022/02/24 04:11:05;;;;;;;7.50;6.77;;;;;;;-4.13;100.00;97332.78;4950409;28;20223;-52
2022/02/24 04:13:33;;;;;;;9.10;7.20;;;;;;;-4.12;100.00;97324.09;4903487;28;20222;-50
2022/02/24 04:16:01;;;;;;;7.20;6.50;;;;;;;-4.20;100.00;97324.53;4923893;28;20764;-52
2022/02/24 04:18:30;;;;;;;7.33;6.67;;;;;;;-4.20;100.00;97314.16;4941741;28;20627;-53
2022/02/24 04:20:58;;;;;;;9.07;7.27;;;;;;;-4.20;100.00;97306.41;4928642;28;20286;-52
2022/02/24 04:23:27;;;;;;;6.73;6.10;;;;;;;-4.12;100.00;97299.03;4944477;28;20544;-56
2022/02/24 04:25:56;;;;;;;7.80;5.87;;;;;;;-4.01;100.00;97303.59;4948170;28;20462;-52
2022/02/24 04:28:24;;;;;;;7.17;6.50;;;;;;;-4.10;100.00;97312.72;4903679;28;20474;-55
2022/02/24 04:30:52;;;;;;;8.00;6.67;;;;;;;-4.09;100.00;97305.78;4922684;28;20501;-54
2022/02/24 04:33:20;;;;;;;8.60;6.67;;;;;;;-3.99;100.00;97306.91;4939449;28;20233;-54
2022/02/24 04:35:49;;;;;;;7.73;6.50;;;;;;;-3.96;100.00;97311.09;4949154;28;20465;-49
2022/02/24 04:38:17;;;;;;;7.53;6.50;;;;;;;-3.99;100.00;97308.66;4927618;28;20521;-49
2022/02/24 04:40:46;;;;;;;9.83;6.93;;;;;;;-4.03;100.00;97297.66;4950690;28;20835;-53
2022/02/24 04:43:15;;;;;;;10.23;7.23;;;;;;;-4.04;100.00;97300.31;4902145;28;20314;-48
2022/02/24 04:45:43;;;;;;;7.80;6.43;;;;;;;-3.93;100.00;97301.38;4927077;28;21178;-49
2022/02/24 04:48:12;;;;;;;9.93;7.37;;;;;;;-3.95;100.00;97297.22;4949241;28;20241;-51
2022/02/24 04:50:40;;;;;;;9.10;6.93;;;;;;;-3.84;100.00;97299.16;4918691;28;20655;-48
2022/02/24 04:53:08;;;;;;;7.83;7.13;;;;;;;-3.89;100.00;97296.84;4930842;28;20517;-50
2022/02/24 04:55:36;;;;;;;7.30;5.60;;;;;;;-4.06;100.00;97295.25;4948457;28;20230;-51
2022/02/24 04:58:06;;;;;;;8.10;6.73;;;;;;;-4.18;100.00;97301.97;4901573;28;20838;-49
2022/02/24 05:00:34;;;;;;;8.90;6.90;;;;;;;-4.23;100.00;97280.72;4946807;28;20563;-47
2022/02/24 05:03:03;;;;;;;7.23;6.63;;;;;;;-4.23;100.00;97284.13;4926214;28;20344;-51
2022/02/24 05:05:31;;;;;;;8.20;7.30;;;;;;;-4.15;100.00;97281.09;4930849;28;20494;-50
2022/02/24 05:08:00;;;;;;;6.80;6.20;;;;;;;-4.14;100.00;97282.75;4920057;28;20320;-53
2022/02/24 05:10:28;;;;;;;9.53;6.07;;;;;;;-4.17;100.00;97279.50;4929928;28;20548;-54
2022/02/24 05:12:56;;;;;;;7.93;7.13;;;;;;;-4.04;100.00;97271.84;4948367;28;20650;-55
2022/02/24 05:15:26;;;;;;;7.00;6.30;;;;;;;-3.98;100.00;97277.50;4898811;28;20722;-53
2022/02/24 05:17:54;;;;;;;7.90;5.50;;;;;;;-3.86;100.00;97275.97;4924315;28;20462;-47
2022/02/24 05:20:26;;;;;;;7.73;6.53;;;;;;;-3.85;100.00;97276.78;4943487;28;20230;-50
2022/02/24 05:22:54;;;;;;;8.63;6.53;;;;;;;-3.82;100.00;97277.44;4924901;28;21614;-50
2022/02/24 05:25:22;;;;;;;7.77;6.63;;;;;;;-3.71;100.00;97270.78;4934649;28;20257;-50
2022/02/24 05:27:51;;;;;;;9.40;6.07;;;;;;;-3.68;100.00;97262.81;4948659;28;20552;-48
2022/02/24 05:30:19;;;;;;;6.40;5.90;;;;;;;-3.65;100.00;97266.06;4904914;28;20246;-54
2022/02/24 05:32:49;;;;;;;9.73;6.47;;;;;;;-3.59;100.00;97264.88;4926255;28;20296;-52
2022/02/24 05:35:17;;;;;;;7.20;6.27;;;;;;;-3.52;100.00;97265.31;4947588;28;20509;-49
2022/02/24 05:37:45;;;;;;;7.27;6.57;;;;;;;-3.45;100.00;97258.00;4942172;28;20470;-51
2022/02/24 05:40:14;;;;;;;7.43;6.27;;;;;;;-3.46;100.00;97262.34;4909103;28;20587;-45
2022/02/24 05:42:44;;;;;;;6.63;6.00;;;;;;;-3.53;100.00;97256.72;4943212;28;20576;-49
2022/02/24 05:45:12;;;;;;;8.23;6.67;;;;;;;-3.44;100.00;97254.50;4948719;28;20258;-51
2022/02/24 05:47:40;;;;;;;7.50;6.77;;;;;;;-3.32;100.00;97253.72;4890831;28;20559;-51
2022/02/24 05:50:10;;;;;;;8.20;6.23;;;;;;;-3.35;100.00;97259.94;4936959;28;20219;-51
2022/02/24 05:52:39;;;;;;;7.13;6.50;;;;;;;-3.35;100.00;97257.34;4943889;28;20635;-48
2022/02/24 05:55:08;;;;;;;7.90;6.33;;;;;;;-3.40;100.00;97254.22;4905291;28;20769;-53
2022/02/24 05:57:36;;;;;;;10.17;7.27;;;;;;;-3.41;100.00;97249.13;4948888;28;22471;-51
2022/02/24 06:00:05;;;;;;;7.27;6.57;;;;;;;-3.39;100.00;97257.63;4947898;28;20516;-51
2022/02/24 06:02:51;;;;;;;8.53;7.67;;;;;;;-3.43;100.00;97253.56;4880569;28;20724;-49
2022/02/24 06:05:21;;;;;;;7.63;6.13;;;;;;;-3.41;100.00;97246.53;4945266;28;20696;-47
2022/02/24 06:07:49;;;;;;;10.53;7.30;;;;;;;-3.42;100.00;97269.00;4919912;28;20316;-50
2022/02/24 06:10:17;;;;;;;11.23;6.53;;;;;;;-3.49;100.00;97254.75;4924776;28;20474;-48
2022/02/24 06:12:45;;;;;;;7.93;7.13;;;;;;;-3.56;100.00;97254.31;4927354;28;20233;-52
2022/02/24 06:15:14;;;;;;;7.30;6.60;;;;;;;-3.50;100.00;97255.69;4949318;28;20578;-49
2022/02/24 06:17:42;;;;;;;9.20;6.80;;;;;;;-3.62;100.00;97249.50;4898591;28;20254;-49
2022/02/24 06:20:11;;;;;;;7.27;6.60;;;;;;;-3.43;100.00;97250.97;4932337;28;20251;-48
2022/02/24 06:22:41;;;;;;;7.13;6.53;;;;;;;-3.24;100.00;97248.06;4928409;28;20646;-51
2022/02/24 06:25:09;;;;;;;7.30;6.33;;;;;;;-3.35;100.00;97252.16;4944178;28;20763;-48
2022/02/24 06:27:38;;;;;;;8.40;6.97;;;;;;;-3.39;100.00;97245.50;4920885;28;21006;-48
2022/02/24 06:30:07;;;;;;;8.40;6.40;;;;;;;-3.36;100.00;97247.06;4946495;28;20653;-49
2022/02/24 06:32:37;;;;;;;7.10;6.40;;;;;;;-3.35;100.00;97243.53;4934456;28;20203;-54
2022/02/24 06:35:06;;;;;;;7.90;7.17;;;;;;;-3.21;100.00;97246.13;4912209;28;20824;-49
2022/02/24 06:37:35;;;;;;;8.07;6.97;;;;;;;-2.99;100.00;97243.94;4940544;28;20230;-51
2022/02/24 06:40:05;;;;;;;9.53;7.03;;;;;;;-2.91;100.00;97241.69;4931852;28;20924;-50
2022/02/24 06:42:33;;;;;;;7.37;6.57;;;;;;;-2.79;100.00;97242.66;4932508;28;20518;-50
2022/02/24 06:45:03;;;;;;;9.23;7.40;;;;;;;-2.73;100.00;97246.59;4932043;28;20226;-53
2022/02/24 06:47:31;;;;;;;10.97;8.00;;;;;;;-2.70;100.00;97239.47;4943809;28;20262;-49
2022/02/24 06:50:00;;;;;;;9.50;8.53;;;;;;;-2.61;100.00;97232.84;4901999;28;21032;-49
2022/02/24 06:52:28;;;;;;;9.07;7.93;;;;;;;-2.63;100.00;97230.34;4943523;28;21804;-53
2022/02/24 06:54:56;;;;;;;9.27;7.57;;;;;;;-2.53;100.00;97225.41;4929279;28;20246;-48
2022/02/24 06:57:26;;;;;;;10.33;7.80;;;;;;;-2.44;100.00;97229.16;4932063;28;20210;-52
2022/02/24 06:59:54;;;;;;;11.43;7.13;;;;;;;-2.06;100.00;97217.97;4931848;28;21052;-51
2022/02/24 07:02:23;;;;;;;9.27;7.77;;;;;;;-2.08;100.00;97221.59;4942083;28;20229;-52
2022/02/24 07:04:51;;;;;;;10.37;7.40;;;;;;;-1.88;100.00;97215.03;4892987;28;20325;-55
2022/02/24 07:07:20;;;;;;;8.67;7.77;;;;;;;-1.76;100.00;97218.56;4947783;28;20217;-50
2022/02/24 07:09:48;;;;;;;11.33;7.80;;;;;;;-1.85;100.00;97222.63;4931062;28;20301;-52
2022/02/24 07:12:17;;;;;;;12.00;8.70;;;;;;;-1.82;100.00;97243.19;4944169;28;20218;-49
2022/02/24 07:14:46;;;;;;;10.87;9.03;;;;;;;-1.68;100.00;97231.84;4917924;28;20246;-47
2022/02/24 07:17:15;;;;;;;8.97;8.07;;;;;;;-1.71;100.00;97231.22;4944482;28;20241;-48
2022/02/24 07:19:43;;;;;;;11.67;8.37;;;;;;;-1.66;100.00;97227.38;4904769;28;20294;-48
2022/02/24 07:22:15;;;;;;;10.57;8.30;;;;;;;-1.63;100.00;97223.75;4928398;28;20401;-46
2022/02/24 07:24:43;;;;;;;12.53;9.23;;;;;;;-1.60;100.00;97226.16;4941758;28;20230;-49
2022/02/24 07:27:12;;;;;;;12.80;7.97;;;;;;;-1.44;100.00;97218.09;4929418;28;20301;-48
2022/02/24 07:29:40;;;;;;;10.17;7.67;;;;;;;-1.38;100.00;97211.63;4918773;28;20242;-55
2022/02/24 07:32:12;;;;;;;15.40;12.67;;;;;;;-1.18;100.00;97208.47;4944000;28;20289;-47
2022/02/24 07:34:40;;;;;;;14.93;10.73;;;;;;;-1.22;100.00;97209.63;4907318;28;20280;-46
2022/02/24 07:37:08;;;;;;;24.87;19.07;;;;;;;-1.05;100.00;97213.63;4929068;28;20469;-49
2022/02/24 07:39:37;;;;;;;8.87;7.93;;;;;;;-0.94;100.00;97215.44;4943765;28;20231;-51
2022/02/24 07:42:06;;;;;;;8.10;7.40;;;;;;;-0.96;100.00;97211.28;4930859;28;20222;-48
2022/02/24 07:44:34;;;;;;;10.67;7.90;;;;;;;-0.98;100.00;97219.19;4933516;28;20309;-49
2022/02/24 07:47:03;;;;;;;8.13;7.43;;;;;;;-0.90;100.00;97211.69;4947308;28;20206;-53
2022/02/24 07:49:32;;;;;;;8.53;7.70;;;;;;;-0.89;100.00;97221.16;4909135;28;20338;-50
2022/02/24 07:52:00;;;;;;;9.07;8.20;;;;;;;-0.81;100.00;97210.16;4931519;28;20289;-51
2022/02/24 07:54:29;;;;;;;8.00;7.20;;;;;;;-0.73;100.00;97207.84;4942991;28;20285;-49
2022/02/24 07:56:57;;;;;;;9.83;8.30;;;;;;;-0.69;100.00;97212.84;4942395;28;21127;-53
2022/02/24 07:59:25;;;;;;;8.57;7.83;;;;;;;-0.53;100.00;97205.53;4935637;28;20571;-52
2022/02/24 08:01:53;;;;;;;8.00;7.23;;;;;;;-0.30;100.00;97209.03;4932523;28;20254;-51
2022/02/24 08:04:21;;;;;;;8.93;8.17;;;;;;;0.03;100.00;97205.78;4902878;28;20294;-53
2022/02/24 08:06:51;;;;;;;9.17;8.17;;;;;;;0.31;100.00;97198.44;4942461;28;20266;-51
2022/02/24 08:09:20;;;;;;;10.13;9.07;;;;;;;0.61;100.00;97204.81;4911705;28;20742;-48
2022/02/24 08:12:38;;;;;;;9.47;8.20;;;;;;;0.69;100.00;97192.00;4945375;28;20647;-52
2022/02/24 08:14:37;;;;;;;8.10;7.30;;;;;;;0.77;100.00;97188.78;4944535;28;20277;-53
2022/02/24 08:17:05;;;;;;;9.40;8.50;;;;;;;1.00;100.00;97177.31;4930171;28;20214;-51
2022/02/24 08:19:33;;;;;;;10.37;8.80;;;;;;;1.15;100.00;97180.47;4901754;28;20219;-48
2022/02/24 08:22:04;;;;;;;12.07;8.40;;;;;;;1.25;100.00;97170.13;4942917;28;20293;-47
2022/02/24 08:24:33;;;;;;;15.37;8.60;;;;;;;1.35;100.00;97167.59;4929959;28;20608;-49
2022/02/24 08:27:01;;;;;;;9.30;8.33;;;;;;;1.47;100.00;97172.75;4936361;28;20306;-47
2022/02/24 08:29:29;;;;;;;8.80;7.93;;;;;;;1.54;100.00;97151.22;4937481;28;20437;-49
2022/02/24 08:31:57;;;;;;;9.53;8.53;;;;;;;1.51;100.00;97155.88;4927622;28;20246;-50
2022/02/24 08:34:26;;;;;;;8.83;7.93;;;;;;;1.88;100.00;97156.22;4902234;28;20937;-53
2022/02/24 08:36:54;;;;;;;7.73;7.00;;;;;;;1.98;100.00;97153.66;4940303;28;20273;-47
2022/02/24 08:39:24;;;;;;;8.83;8.00;;;;;;;2.13;100.00;97145.47;4929096;28;20521;-53
2022/02/24 08:41:53;;;;;;;11.83;7.93;;;;;;;2.17;100.00;97146.88;4929082;28;20607;-50
2022/02/24 08:44:22;;;;;;;9.90;7.97;;;;;;;2.18;100.00;97140.69;4930639;28;20883;-48
2022/02/24 08:46:50;;;;;;;9.07;8.17;;;;;;;2.27;100.00;97128.56;4944470;28;20242;-50
2022/02/24 08:49:18;;;;;;;9.70;8.70;;;;;;;2.36;100.00;97137.41;4932759;28;20989;-53
2022/02/24 08:51:46;;;;;;;11.93;8.80;;;;;;;2.69;100.00;97138.88;4905244;28;20322;-53
2022/02/24 08:54:15;;;;;;;8.40;7.23;;;;;;;2.79;100.00;97138.88;4931457;28;20551;-52
2022/02/24 08:56:45;;;;;;;10.43;8.20;;;;;;;3.07;100.00;97135.63;4934118;28;21255;-53
2022/02/24 08:59:13;;;;;;;8.67;7.80;;;;;;;3.32;100.00;97129.78;4929005;28;20373;-47
2022/02/24 09:01:41;;;;;;;9.43;7.60;;;;;;;3.66;100.00;97131.13;4946317;28;20746;-51
2022/02/24 09:04:10;;;;;;;9.10;8.20;;;;;;;3.66;100.00;97122.44;4929573;28;20269;-51
2022/02/24 09:06:38;;;;;;;11.20;7.67;;;;;;;3.81;100.00;97128.06;4907802;28;20230;-55
2022/02/24 09:09:06;;;;;;;8.23;7.43;;;;;;;3.84;100.00;97125.16;4940289;28;20277;-48
2022/02/24 09:11:34;;;;;;;8.37;7.57;;;;;;;3.88;100.00;97129.13;4919992;28;20202;-53
2022/02/24 09:14:05;;;;;;;11.30;7.70;;;;;;;3.86;100.00;97126.66;4942707;28;20258;-50
2022/02/24 09:16:35;;;;;;;11.60;7.80;;;;;;;4.00;100.00;97116.69;4950474;28;20214;-52
2022/02/24 09:19:04;;;;;;;8.20;7.40;;;;;;;4.06;100.00;97116.09;4933897;28;20215;-47
2022/02/24 09:21:33;;;;;;;11.13;7.63;;;;;;;3.95;100.00;97116.28;4911279;28;20377;-48
2022/02/24 09:24:01;;;;;;;8.13;7.33;;;;;;;3.97;100.00;97116.97;4944243;28;20282;-50
2022/02/24 09:26:29;;;;;;;11.37;8.00;;;;;;;3.90;100.00;97116.72;4931941;28;20414;-53
2022/02/24 09:28:58;;;;;;;12.00;7.20;;;;;;;4.00;100.00;97108.81;4947797;28;20261;-48
2022/02/24 09:31:27;;;;;;;8.97;8.17;;;;;;;4.05;100.00;97102.19;4931192;28;20241;-51
2022/02/24 09:33:55;;;;;;;9.80;8.13;;;;;;;4.15;100.00;97096.88;4933811;28;20343;-49
2022/02/24 09:36:24;;;;;;;13.53;8.27;;;;;;;4.31;100.00;97098.84;4947311;28;20890;-51
2022/02/24 09:38:52;;;;;;;11.87;7.60;;;;;;;4.47;100.00;97097.41;4902851;28;20277;-47
2022/02/24 09:41:23;;;;;;;12.50;10.37;;;;;;;4.47;100.00;97079.03;4939342;28;20265;-52
2022/02/24 09:43:51;;;;;;;15.40;11.33;;;;;;;4.75;100.00;97081.63;4931579;28;20254;-52
2022/02/24 09:46:20;;;;;;;9.53;7.80;;;;;;;4.80;100.00;97081.16;4931255;28;20328;-49
2022/02/24 09:48:50;;;;;;;8.93;8.00;;;;;;;4.78;100.00;97081.31;4936472;28;20224;-55
2022/02/24 09:51:19;;;;;;;9.33;8.43;;;;;;;4.75;100.00;97087.69;4944826;28;20936;-49
2022/02/24 09:53:48;;;;;;;9.60;7.80;;;;;;;5.01;100.00;97086.94;4901699;28;20249;-48
2022/02/24 09:56:18;;;;;;;8.63;7.57;;;;;;;5.01;100.00;97093.97;4941730;28;20544;-48
2022/02/24 09:58:46;;;;;;;8.60;7.80;;;;;;;5.05;100.00;97085.66;4933239;28;20252;-50
2022/02/24 10:01:15;;;;;;;11.93;7.63;;;;;;;5.35;100.00;97080.13;4930187;28;20956;-50
2022/02/24 10:03:49;;;;;;;10.33;8.83;;;;;;;5.43;100.00;97082.00;4931857;28;20234;-50
2022/02/24 10:06:19;;;;;;;9.33;7.10;;;;;;;5.70;100.00;97078.38;4943166;28;20277;-52
2022/02/24 10:08:49;;;;;;;9.00;8.10;;;;;;;5.47;100.00;97076.25;4903074;28;20709;-50
2022/02/24 10:15:13;;;;;;;11.53;8.93;;;;;;;5.23;100.00;97079.53;4920384;28;20337;-48
2022/02/24 10:17:41;;;;;;;9.60;8.13;;;;;;;5.09;100.00;97072.22;4920576;28;20401;-50
2022/02/24 10:20:11;;;;;;;9.30;8.43;;;;;;;5.18;100.00;97069.50;4927792;28;20213;-54
2022/02/24 10:22:42;;;;;;;10.50;9.60;;;;;;;5.30;100.00;97064.00;4942992;28;20711;-51
2022/02/24 10:25:15;;;;;;;10.70;8.93;;;;;;;5.04;100.00;97065.63;4894385;28;20321;-51
2022/02/24 10:27:46;;;;;;;12.30;9.40;;;;;;;5.09;100.00;97057.28;4943251;28;20214;-49
2022/02/24 10:30:16;;;;;;;12.07;9.70;;;;;;;5.34;100.00;97045.16;4922516;28;20214;-52
2022/02/24 10:32:46;;;;;;;10.87;8.77;;;;;;;5.10;100.00;97034.47;4921224;28;20378;-50
2022/02/24 10:35:26;;;;;;;11.30;9.83;;;;;;;5.28;100.00;97037.06;4927187;28;20226;-46
2022/02/24 10:38:02;;;;;;;10.47;9.47;;;;;;;5.23;100.00;97019.13;4942475;28;20918;-52
2022/02/24 10:40:32;;;;;;;10.33;9.33;;;;;;;5.32;100.00;97012.97;4893279;28;20622;-50
2022/02/24 10:43:11;;;;;;;9.30;8.43;;;;;;;5.70;100.00;97020.56;4946101;28;20524;-48
2022/02/24 10:45:39;;;;;;;10.00;9.00;;;;;;;5.87;100.00;97013.56;4918839;28;20233;-51
2022/02/24 10:48:08;;;;;;;10.20;9.27;;;;;;;5.87;100.00;97018.81;4946014;28;20302;-45
2022/02/24 10:50:48;;;;;;;9.83;8.50;;;;;;;6.02;100.00;97023.50;4905723;28;20662;-51
2022/02/24 10:53:20;;;;;;;10.87;9.57;;;;;;;6.25;100.00;97013.25;4947448;28;20234;-51
2022/02/24 10:56:03;;;;;;;10.63;8.37;;;;;;;6.35;100.00;97011.28;4891812;28;20596;-51
2022/02/24 10:58:35;;;;;;;18.30;14.30;;;;;;;6.47;100.00;96998.63;4942837;28;20301;-50
2022/02/24 11:01:08;;;;;;;8.53;7.70;;;;;;;6.25;100.00;97007.13;4925504;28;20217;-55
2022/02/24 11:03:37;;;;;;;8.90;8.20;;;;;;;6.24;100.00;96990.50;4942758;28;20737;-46
2022/02/24 11:06:07;;;;;;;10.87;8.00;;;;;;;6.33;100.00;96989.56;4910406;28;20214;-50
2022/02/24 11:08:38;;;;;;;9.37;8.07;;;;;;;6.40;100.00;96973.94;4945746;28;20247;-51
2022/02/24 11:11:07;;;;;;;8.30;7.60;;;;;;;6.34;100.00;96972.78;4895634;28;20218;-54
2022/02/24 11:13:36;;;;;;;12.37;8.47;;;;;;;6.53;100.00;96972.66;4942513;28;20363;-48
2022/02/24 11:16:05;;;;;;;10.63;7.50;;;;;;;6.49;100.00;96961.59;4927873;28;20329;-56
2022/02/24 11:18:33;;;;;;;8.80;7.73;;;;;;;6.55;100.00;96960.94;4943550;28;20210;-51
2022/02/24 11:21:01;;;;;;;9.23;8.33;;;;;;;6.50;100.00;96945.66;4911910;28;20232;-47
2022/02/24 11:23:29;;;;;;;10.10;7.97;;;;;;;6.47;100.00;96948.63;4945519;28;20671;-48
2022/02/24 11:26:05;;;;;;;9.20;8.07;;;;;;;6.58;100.00;96944.03;4897136;28;20927;-52
2022/02/24 11:28:40;;;;;;;7.57;6.77;;;;;;;6.65;100.00;96939.72;4941519;28;20289;-53
2022/02/24 11:31:17;;;;;;;8.77;6.80;;;;;;;6.72;100.00;96924.09;4945716;28;20698;-51
2022/02/24 11:33:45;;;;;;;8.33;7.63;;;;;;;6.81;100.00;96915.22;4924133;28;20233;-53
2022/02/24 11:36:16;;;;;;;8.27;7.47;;;;;;;6.95;100.00;96914.50;4926748;28;20499;-51